Corcoran, California
Current Conditions -  °F | °C
As of 7:53 AM on Friday 19 Dec 2014 (Local Time) from KHJO Reporting Station
Clear Clear  
Wind Chill: 41°   Ceiling: Unl
Heat Index: 44°   Visibility: 7mi
Dew Point: 42°   Wind: 6mph
Humidity: 93%   Direction: 120°ESE
Pressure: 30.21"   Gusts: NA
Location:  36.1°N, 119.55°W
Report Text: KHJO 191553Z AUTO 12005KT 7SM CLR 07/06 A3021 RMK AO2 SLP233 T00670056
Loading
Personal Weather Stations






























Interactive Weather Map New forecast layout! Learn more

10-Day Weather Forecast

Advertisements
Track Severe Weather on mobile